sensor_id;sensor_type;location;lat;lon;timestamp;temperature;humidity
55036;DHT22;40936;53.008;6.556;2022-12-07T00:01:38;6.10;1.00
55036;DHT22;40936;53.008;6.556;2022-12-07T00:04:05;7.40;1.00
55036;DHT22;40936;53.008;6.556;2022-12-07T00:06:44;7.60;1.00
55036;DHT22;40936;53.008;6.556;2022-12-07T00:09:13;6.30;1.00
55036;DHT22;40936;53.008;6.556;2022-12-07T00:11:39;6.80;1.00
55036;DHT22;40936;53.008;6.556;2022-12-07T00:14:13;6.20;1.00
55036;DHT22;40936;53.008;6.556;2022-12-07T00:16:40;6.20;1.00
55036;DHT22;40936;53.008;6.556;2022-12-07T00:19:06;6.20;1.00
55036;DHT22;40936;53.008;6.556;2022-12-07T00:21:34;7.50;1.00
55036;DHT22;40936;53.008;6.556;2022-12-07T00:24:00;6.20;1.00
55036;DHT22;40936;53.008;6.556;2022-12-07T00:26:31;6.20;1.00
55036;DHT22;40936;53.008;6.556;2022-12-07T00:29:00;6.40;1.00
55036;DHT22;40936;53.008;6.556;2022-12-07T00:31:29;6.40;1.00
55036;DHT22;40936;53.008;6.556;2022-12-07T00:33:55;7.20;99.90
55036;DHT22;40936;53.008;6.556;2022-12-07T00:36:24;7.60;99.90
55036;DHT22;40936;53.008;6.556;2022-12-07T00:38:49;6.20;99.90
55036;DHT22;40936;53.008;6.556;2022-12-07T00:41:18;7.70;99.90
55036;DHT22;40936;53.008;6.556;2022-12-07T00:43:44;7.70;99.90
55036;DHT22;40936;53.008;6.556;2022-12-07T00:46:11;6.80;99.90
55036;DHT22;40936;53.008;6.556;2022-12-07T00:48:37;6.20;99.90
55036;DHT22;40936;53.008;6.556;2022-12-07T00:51:04;4.30;99.90
55036;DHT22;40936;53.008;6.556;2022-12-07T00:53:30;6.00;99.90
55036;DHT22;40936;53.008;6.556;2022-12-07T00:55:56;7.60;99.90
55036;DHT22;40936;53.008;6.556;2022-12-07T00:58:22;6.40;99.90
55036;DHT22;40936;53.008;6.556;2022-12-07T01:00:48;6.10;99.90
55036;DHT22;40936;53.008;6.556;2022-12-07T01:03:15;6.00;1.00
55036;DHT22;40936;53.008;6.556;2022-12-07T01:05:52;6.60;1.00
55036;DHT22;40936;53.008;6.556;2022-12-07T01:08:18;6.00;1.00
55036;DHT22;40936;53.008;6.556;2022-12-07T01:10:44;7.80;1.00
55036;DHT22;40936;53.008;6.556;2022-12-07T01:13:10;7.30;1.00
55036;DHT22;40936;53.008;6.556;2022-12-07T01:15:42;7.00;1.00
55036;DHT22;40936;53.008;6.556;2022-12-07T01:18:08;6.50;1.00
55036;DHT22;40936;53.008;6.556;2022-12-07T01:20:34;5.80;1.00
55036;DHT22;40936;53.008;6.556;2022-12-07T01:23:00;5.70;1.00
55036;DHT22;40936;53.008;6.556;2022-12-07T01:25:26;6.00;1.00
55036;DHT22;40936;53.008;6.556;2022-12-07T01:27:51;7.60;1.00
55036;DHT22;40936;53.008;6.556;2022-12-07T01:30:17;6.70;1.00
55036;DHT22;40936;53.008;6.556;2022-12-07T01:32:43;6.80;43.50
55036;DHT22;40936;53.008;6.556;2022-12-07T01:35:08;9.60;99.90
55036;DHT22;40936;53.008;6.556;2022-12-07T01:37:35;6.80;90.30
55036;DHT22;40936;53.008;6.556;2022-12-07T01:40:02;7.60;20.80
55036;DHT22;40936;53.008;6.556;2022-12-07T01:42:28;6.60;99.90
55036;DHT22;40936;53.008;6.556;2022-12-07T01:47:45;6.70;1.00
55036;DHT22;40936;53.008;6.556;2022-12-07T01:50:11;6.40;1.00
55036;DHT22;40936;53.008;6.556;2022-12-07T01:52:37;7.10;99.90
55036;DHT22;40936;53.008;6.556;2022-12-07T01:55:07;7.90;73.00
55036;DHT22;40936;53.008;6.556;2022-12-07T01:57:37;7.00;99.90
55036;DHT22;40936;53.008;6.556;2022-12-07T02:00:06;8.50;99.90
55036;DHT22;40936;53.008;6.556;2022-12-07T02:02:39;7.10;99.90
55036;DHT22;40936;53.008;6.556;2022-12-07T02:05:07;7.90;1.00
55036;DHT22;40936;53.008;6.556;2022-12-07T02:07:34;7.20;1.00
55036;DHT22;40936;53.008;6.556;2022-12-07T02:10:28;7.00;1.00
55036;DHT22;40936;53.008;6.556;2022-12-07T02:12:58;7.20;99.90
55036;DHT22;40936;53.008;6.556;2022-12-07T02:15:33;8.10;69.50
55036;DHT22;40936;53.008;6.556;2022-12-07T02:24:00;6.60;99.90
55036;DHT22;40936;53.008;6.556;2022-12-07T02:29:28;6.30;99.90
55036;DHT22;40936;53.008;6.556;2022-12-07T02:34:47;7.10;99.90
55036;DHT22;40936;53.008;6.556;2022-12-07T02:42:36;6.80;99.90
55036;DHT22;40936;53.008;6.556;2022-12-07T02:45:03;6.30;99.90
55036;DHT22;40936;53.008;6.556;2022-12-07T02:47:31;6.90;99.90
55036;DHT22;40936;53.008;6.556;2022-12-07T02:49:58;6.90;99.90
55036;DHT22;40936;53.008;6.556;2022-12-07T02:52:24;6.80;99.90
55036;DHT22;40936;53.008;6.556;2022-12-07T02:54:50;7.60;99.90
55036;DHT22;40936;53.008;6.556;2022-12-07T02:57:49;6.70;99.90
55036;DHT22;40936;53.008;6.556;2022-12-07T03:00:16;6.80;99.90
55036;DHT22;40936;53.008;6.556;2022-12-07T03:03:01;7.00;99.90
55036;DHT22;40936;53.008;6.556;2022-12-07T03:11:16;6.90;99.90
55036;DHT22;40936;53.008;6.556;2022-12-07T03:13:50;7.10;99.90
55036;DHT22;40936;53.008;6.556;2022-12-07T03:16:25;8.10;99.90
55036;DHT22;40936;53.008;6.556;2022-12-07T03:19:08;7.90;99.90
55036;DHT22;40936;53.008;6.556;2022-12-07T03:21:44;7.10;99.90
55036;DHT22;40936;53.008;6.556;2022-12-07T03:24:15;8.50;99.90
55036;DHT22;40936;53.008;6.556;2022-12-07T03:26:53;6.60;99.90
55036;DHT22;40936;53.008;6.556;2022-12-07T03:29:28;6.80;99.90
55036;DHT22;40936;53.008;6.556;2022-12-07T03:32:06;7.00;99.90
55036;DHT22;40936;53.008;6.556;2022-12-07T03:34:40;7.10;99.90
55036;DHT22;40936;53.008;6.556;2022-12-07T03:37:18;7.20;99.90
55036;DHT22;40936;53.008;6.556;2022-12-07T03:40:11;7.30;99.90
55036;DHT22;40936;53.008;6.556;2022-12-07T03:42:38;6.90;99.90
55036;DHT22;40936;53.008;6.556;2022-12-07T03:45:06;8.10;99.90
55036;DHT22;40936;53.008;6.556;2022-12-07T03:50:07;6.70;99.90
55036;DHT22;40936;53.008;6.556;2022-12-07T03:52:37;6.70;99.90
55036;DHT22;40936;53.008;6.556;2022-12-07T03:55:12;8.20;99.90
55036;DHT22;40936;53.008;6.556;2022-12-07T03:57:41;5.80;99.90
55036;DHT22;40936;53.008;6.556;2022-12-07T04:00:09;8.40;99.90
55036;DHT22;40936;53.008;6.556;2022-12-07T04:02:35;6.70;99.90
55036;DHT22;40936;53.008;6.556;2022-12-07T04:05:01;8.30;99.90
55036;DHT22;40936;53.008;6.556;2022-12-07T04:07:27;6.80;99.90
55036;DHT22;40936;53.008;6.556;2022-12-07T04:09:52;6.80;99.90
55036;DHT22;40936;53.008;6.556;2022-12-07T04:12:20;7.20;99.90
55036;DHT22;40936;53.008;6.556;2022-12-07T04:14:46;8.20;99.90
55036;DHT22;40936;53.008;6.556;2022-12-07T04:17:12;7.00;99.90
55036;DHT22;40936;53.008;6.556;2022-12-07T04:19:37;6.60;99.90
55036;DHT22;40936;53.008;6.556;2022-12-07T04:22:06;7.20;99.90
55036;DHT22;40936;53.008;6.556;2022-12-07T04:24:33;6.50;99.90
55036;DHT22;40936;53.008;6.556;2022-12-07T04:26:58;7.60;99.90
55036;DHT22;40936;53.008;6.556;2022-12-07T04:29:25;6.00;99.90
55036;DHT22;40936;53.008;6.556;2022-12-07T04:31:51;8.00;99.90
55036;DHT22;40936;53.008;6.556;2022-12-07T04:34:17;6.90;99.90
55036;DHT22;40936;53.008;6.556;2022-12-07T04:36:44;7.80;99.90
55036;DHT22;40936;53.008;6.556;2022-12-07T04:39:27;7.00;99.90
55036;DHT22;40936;53.008;6.556;2022-12-07T04:41:53;8.80;99.90
55036;DHT22;40936;53.008;6.556;2022-12-07T04:44:19;7.40;99.90
55036;DHT22;40936;53.008;6.556;2022-12-07T04:46:45;8.30;99.90
55036;DHT22;40936;53.008;6.556;2022-12-07T04:49:11;6.90;99.90
55036;DHT22;40936;53.008;6.556;2022-12-07T04:51:37;7.00;99.90
55036;DHT22;40936;53.008;6.556;2022-12-07T04:54:03;8.40;99.90
55036;DHT22;40936;53.008;6.556;2022-12-07T04:56:29;7.50;99.90
55036;DHT22;40936;53.008;6.556;2022-12-07T04:58:55;7.40;99.90
55036;DHT22;40936;53.008;6.556;2022-12-07T05:01:22;7.30;99.90
55036;DHT22;40936;53.008;6.556;2022-12-07T05:03:48;8.50;99.90
55036;DHT22;40936;53.008;6.556;2022-12-07T05:06:14;7.90;99.90
55036;DHT22;40936;53.008;6.556;2022-12-07T05:08:40;8.80;99.90
55036;DHT22;40936;53.008;6.556;2022-12-07T05:11:07;7.20;99.90
55036;DHT22;40936;53.008;6.556;2022-12-07T05:13:33;7.80;99.90
55036;DHT22;40936;53.008;6.556;2022-12-07T05:15:59;8.10;99.90
55036;DHT22;40936;53.008;6.556;2022-12-07T05:18:24;7.90;99.90
55036;DHT22;40936;53.008;6.556;2022-12-07T05:20:50;7.60;99.90
55036;DHT22;40936;53.008;6.556;2022-12-07T05:23:17;7.50;99.90
55036;DHT22;40936;53.008;6.556;2022-12-07T05:25:43;7.20;99.90
55036;DHT22;40936;53.008;6.556;2022-12-07T05:28:09;7.00;99.90
55036;DHT22;40936;53.008;6.556;2022-12-07T05:30:35;6.70;99.90
55036;DHT22;40936;53.008;6.556;2022-12-07T05:33:00;7.20;99.90
55036;DHT22;40936;53.008;6.556;2022-12-07T05:35:26;7.00;99.90
55036;DHT22;40936;53.008;6.556;2022-12-07T05:37:52;7.30;99.90
55036;DHT22;40936;53.008;6.556;2022-12-07T05:40:17;6.70;99.90
55036;DHT22;40936;53.008;6.556;2022-12-07T05:42:44;6.30;99.90
55036;DHT22;40936;53.008;6.556;2022-12-07T05:45:10;7.80;99.90
55036;DHT22;40936;53.008;6.556;2022-12-07T05:47:36;6.20;99.90
55036;DHT22;40936;53.008;6.556;2022-12-07T05:50:03;6.10;99.90
55036;DHT22;40936;53.008;6.556;2022-12-07T05:52:29;6.50;99.90
55036;DHT22;40936;53.008;6.556;2022-12-07T05:54:55;6.50;99.90
55036;DHT22;40936;53.008;6.556;2022-12-07T05:57:21;6.40;99.90
55036;DHT22;40936;53.008;6.556;2022-12-07T05:59:46;5.80;99.90
55036;DHT22;40936;53.008;6.556;2022-12-07T06:02:14;6.60;99.90
55036;DHT22;40936;53.008;6.556;2022-12-07T06:04:42;7.40;99.90
55036;DHT22;40936;53.008;6.556;2022-12-07T06:07:09;7.10;99.90
55036;DHT22;40936;53.008;6.556;2022-12-07T06:09:36;6.70;99.90
55036;DHT22;40936;53.008;6.556;2022-12-07T06:12:02;7.40;99.90
55036;DHT22;40936;53.008;6.556;2022-12-07T06:14:47;6.50;99.90
55036;DHT22;40936;53.008;6.556;2022-12-07T06:17:13;6.30;99.90
55036;DHT22;40936;53.008;6.556;2022-12-07T06:19:39;6.70;99.90
55036;DHT22;40936;53.008;6.556;2022-12-07T06:22:05;6.60;99.90
55036;DHT22;40936;53.008;6.556;2022-12-07T06:24:32;7.10;99.90
55036;DHT22;40936;53.008;6.556;2022-12-07T06:26:58;6.60;99.90
55036;DHT22;40936;53.008;6.556;2022-12-07T06:29:24;7.60;99.90
55036;DHT22;40936;53.008;6.556;2022-12-07T06:31:50;6.50;99.90
55036;DHT22;40936;53.008;6.556;2022-12-07T06:34:18;7.00;99.90
55036;DHT22;40936;53.008;6.556;2022-12-07T06:36:44;6.40;99.90
55036;DHT22;40936;53.008;6.556;2022-12-07T06:39:10;6.40;99.90
55036;DHT22;40936;53.008;6.556;2022-12-07T06:41:37;6.50;99.90
55036;DHT22;40936;53.008;6.556;2022-12-07T06:44:04;7.70;99.90
55036;DHT22;40936;53.008;6.556;2022-12-07T06:46:30;8.50;99.90
55036;DHT22;40936;53.008;6.556;2022-12-07T06:48:55;6.90;99.90
55036;DHT22;40936;53.008;6.556;2022-12-07T06:51:21;8.30;99.90
55036;DHT22;40936;53.008;6.556;2022-12-07T06:53:47;8.10;99.90
55036;DHT22;40936;53.008;6.556;2022-12-07T06:56:13;6.90;99.90
55036;DHT22;40936;53.008;6.556;2022-12-07T06:58:39;7.20;99.90
55036;DHT22;40936;53.008;6.556;2022-12-07T07:01:12;7.00;99.90
55036;DHT22;40936;53.008;6.556;2022-12-07T07:03:38;5.70;99.90
55036;DHT22;40936;53.008;6.556;2022-12-07T07:06:05;8.00;99.90
55036;DHT22;40936;53.008;6.556;2022-12-07T07:08:31;6.20;99.90
55036;DHT22;40936;53.008;6.556;2022-12-07T07:10:57;7.50;99.90
55036;DHT22;40936;53.008;6.556;2022-12-07T07:13:22;6.30;99.90
55036;DHT22;40936;53.008;6.556;2022-12-07T07:15:48;6.00;99.90
55036;DHT22;40936;53.008;6.556;2022-12-07T07:18:14;6.80;99.90
55036;DHT22;40936;53.008;6.556;2022-12-07T07:20:39;6.50;99.90
55036;DHT22;40936;53.008;6.556;2022-12-07T07:23:05;8.00;99.90
55036;DHT22;40936;53.008;6.556;2022-12-07T07:25:31;7.30;99.90
55036;DHT22;40936;53.008;6.556;2022-12-07T07:27:57;5.90;99.90
55036;DHT22;40936;53.008;6.556;2022-12-07T07:30:23;6.60;99.90
55036;DHT22;40936;53.008;6.556;2022-12-07T07:32:49;6.40;99.90
55036;DHT22;40936;53.008;6.556;2022-12-07T07:35:15;6.30;99.90
55036;DHT22;40936;53.008;6.556;2022-12-07T07:37:41;6.50;99.90
55036;DHT22;40936;53.008;6.556;2022-12-07T07:40:08;8.10;99.90
55036;DHT22;40936;53.008;6.556;2022-12-07T07:42:34;6.60;99.90
55036;DHT22;40936;53.008;6.556;2022-12-07T07:44:59;7.80;99.90
55036;DHT22;40936;53.008;6.556;2022-12-07T07:47:25;6.50;99.90
55036;DHT22;40936;53.008;6.556;2022-12-07T07:49:51;8.60;99.90
55036;DHT22;40936;53.008;6.556;2022-12-07T07:52:16;6.80;99.90
55036;DHT22;40936;53.008;6.556;2022-12-07T07:54:42;8.20;99.90
55036;DHT22;40936;53.008;6.556;2022-12-07T07:57:08;6.10;99.90
55036;DHT22;40936;53.008;6.556;2022-12-07T07:59:33;6.60;99.90
55036;DHT22;40936;53.008;6.556;2022-12-07T08:01:59;6.40;99.90
55036;DHT22;40936;53.008;6.556;2022-12-07T08:04:25;7.50;99.90
55036;DHT22;40936;53.008;6.556;2022-12-07T08:06:51;6.50;99.90
55036;DHT22;40936;53.008;6.556;2022-12-07T08:09:17;6.00;99.90
55036;DHT22;40936;53.008;6.556;2022-12-07T08:11:42;5.50;99.90
55036;DHT22;40936;53.008;6.556;2022-12-07T08:14:10;6.50;99.90
55036;DHT22;40936;53.008;6.556;2022-12-07T08:16:37;6.50;99.90
55036;DHT22;40936;53.008;6.556;2022-12-07T08:19:04;7.00;99.90
55036;DHT22;40936;53.008;6.556;2022-12-07T08:21:30;7.90;99.90
55036;DHT22;40936;53.008;6.556;2022-12-07T08:23:57;8.10;99.90
55036;DHT22;40936;53.008;6.556;2022-12-07T08:26:22;8.00;99.90
55036;DHT22;40936;53.008;6.556;2022-12-07T08:28:48;8.00;99.90
55036;DHT22;40936;53.008;6.556;2022-12-07T08:31:16;6.80;99.90
55036;DHT22;40936;53.008;6.556;2022-12-07T08:33:45;6.80;99.90
55036;DHT22;40936;53.008;6.556;2022-12-07T08:36:12;6.90;99.90
55036;DHT22;40936;53.008;6.556;2022-12-07T08:38:39;7.20;99.90
55036;DHT22;40936;53.008;6.556;2022-12-07T08:41:06;6.90;99.90
55036;DHT22;40936;53.008;6.556;2022-12-07T08:43:32;7.80;99.90
55036;DHT22;40936;53.008;6.556;2022-12-07T08:48:50;7.50;99.90
55036;DHT22;40936;53.008;6.556;2022-12-07T08:51:16;8.00;99.90
55036;DHT22;40936;53.008;6.556;2022-12-07T08:53:43;7.60;99.90
55036;DHT22;40936;53.008;6.556;2022-12-07T08:56:09;7.50;99.90
55036;DHT22;40936;53.008;6.556;2022-12-07T08:58:36;7.00;99.90
55036;DHT22;40936;53.008;6.556;2022-12-07T09:01:03;7.30;99.90
55036;DHT22;40936;53.008;6.556;2022-12-07T09:03:28;7.30;99.90
55036;DHT22;40936;53.008;6.556;2022-12-07T09:05:54;6.80;99.90
55036;DHT22;40936;53.008;6.556;2022-12-07T09:08:22;7.30;99.90
55036;DHT22;40936;53.008;6.556;2022-12-07T09:13:14;7.30;99.90
55036;DHT22;40936;53.008;6.556;2022-12-07T09:15:40;7.20;99.90
55036;DHT22;40936;53.008;6.556;2022-12-07T09:18:05;8.30;99.90
55036;DHT22;40936;53.008;6.556;2022-12-07T09:20:31;9.60;99.90
55036;DHT22;40936;53.008;6.556;2022-12-07T09:22:57;7.40;99.90
55036;DHT22;40936;53.008;6.556;2022-12-07T09:25:22;7.30;99.90
55036;DHT22;40936;53.008;6.556;2022-12-07T09:27:52;7.70;99.90
55036;DHT22;40936;53.008;6.556;2022-12-07T09:30:20;8.00;99.90
55036;DHT22;40936;53.008;6.556;2022-12-07T09:32:45;8.90;99.90
55036;DHT22;40936;53.008;6.556;2022-12-07T09:35:11;8.00;99.90
55036;DHT22;40936;53.008;6.556;2022-12-07T09:40:04;8.30;99.90
55036;DHT22;40936;53.008;6.556;2022-12-07T09:42:37;8.40;99.90
55036;DHT22;40936;53.008;6.556;2022-12-07T09:45:06;8.20;99.90
55036;DHT22;40936;53.008;6.556;2022-12-07T09:47:33;8.30;99.90
55036;DHT22;40936;53.008;6.556;2022-12-07T09:50:12;7.60;99.90
55036;DHT22;40936;53.008;6.556;2022-12-07T09:52:38;8.50;99.90
55036;DHT22;40936;53.008;6.556;2022-12-07T09:55:11;10.10;99.90
55036;DHT22;40936;53.008;6.556;2022-12-07T09:57:37;8.30;99.90
55036;DHT22;40936;53.008;6.556;2022-12-07T10:00:15;7.20;99.90
55036;DHT22;40936;53.008;6.556;2022-12-07T10:02:48;8.40;99.90
55036;DHT22;40936;53.008;6.556;2022-12-07T10:05:26;9.50;99.90
55036;DHT22;40936;53.008;6.556;2022-12-07T10:07:53;8.50;99.90
55036;DHT22;40936;53.008;6.556;2022-12-07T10:10:29;8.20;99.90
55036;DHT22;40936;53.008;6.556;2022-12-07T10:12:59;10.00;99.90
55036;DHT22;40936;53.008;6.556;2022-12-07T10:21:01;8.30;99.90
55036;DHT22;40936;53.008;6.556;2022-12-07T10:23:28;8.50;99.90
55036;DHT22;40936;53.008;6.556;2022-12-07T10:25:54;8.40;99.90
55036;DHT22;40936;53.008;6.556;2022-12-07T10:28:21;9.70;99.90
55036;DHT22;40936;53.008;6.556;2022-12-07T10:31:00;9.00;99.90
55036;DHT22;40936;53.008;6.556;2022-12-07T10:35:58;9.90;99.90
55036;DHT22;40936;53.008;6.556;2022-12-07T10:38:25;9.10;99.90
55036;DHT22;40936;53.008;6.556;2022-12-07T10:41:12;10.60;99.90
55036;DHT22;40936;53.008;6.556;2022-12-07T10:43:51;9.10;99.90
55036;DHT22;40936;53.008;6.556;2022-12-07T10:46:20;9.20;99.90
55036;DHT22;40936;53.008;6.556;2022-12-07T10:49:25;9.70;99.90
55036;DHT22;40936;53.008;6.556;2022-12-07T10:52:05;8.70;99.90
55036;DHT22;40936;53.008;6.556;2022-12-07T10:58:05;8.50;99.90
55036;DHT22;40936;53.008;6.556;2022-12-07T11:00:24;8.90;99.90
55036;DHT22;40936;53.008;6.556;2022-12-07T11:05:33;9.10;99.90
55036;DHT22;40936;53.008;6.556;2022-12-07T11:08:21;10.20;99.90
55036;DHT22;40936;53.008;6.556;2022-12-07T11:11:08;9.70;99.90
55036;DHT22;40936;53.008;6.556;2022-12-07T11:16:56;9.80;99.90
55036;DHT22;40936;53.008;6.556;2022-12-07T11:25:13;9.60;99.90
55036;DHT22;40936;53.008;6.556;2022-12-07T11:30:47;9.80;99.90
55036;DHT22;40936;53.008;6.556;2022-12-07T11:33:27;9.50;99.90
55036;DHT22;40936;53.008;6.556;2022-12-07T11:41:09;10.20;99.90
55036;DHT22;40936;53.008;6.556;2022-12-07T11:44:07;10.00;99.90
55036;DHT22;40936;53.008;6.556;2022-12-07T11:46:50;10.10;99.90
55036;DHT22;40936;53.008;6.556;2022-12-07T11:49:45;10.50;99.90
55036;DHT22;40936;53.008;6.556;2022-12-07T11:55:32;10.90;99.90
55036;DHT22;40936;53.008;6.556;2022-12-07T11:58:06;10.30;99.90
55036;DHT22;40936;53.008;6.556;2022-12-07T12:00:38;11.40;99.90
55036;DHT22;40936;53.008;6.556;2022-12-07T12:03:12;10.20;99.90
55036;DHT22;40936;53.008;6.556;2022-12-07T12:05:41;10.10;99.90
55036;DHT22;40936;53.008;6.556;2022-12-07T12:19:24;9.70;99.90
55036;DHT22;40936;53.008;6.556;2022-12-07T12:24:59;9.80;99.90
55036;DHT22;40936;53.008;6.556;2022-12-07T12:27:29;10.10;99.90
55036;DHT22;40936;53.008;6.556;2022-12-07T12:29:58;9.80;99.90
55036;DHT22;40936;53.008;6.556;2022-12-07T12:32:42;9.90;99.90
55036;DHT22;40936;53.008;6.556;2022-12-07T12:40:42;9.80;99.90
55036;DHT22;40936;53.008;6.556;2022-12-07T12:43:40;9.80;99.90
55036;DHT22;40936;53.008;6.556;2022-12-07T12:51:41;9.40;99.90
55036;DHT22;40936;53.008;6.556;2022-12-07T12:54:15;9.80;99.90
55036;DHT22;40936;53.008;6.556;2022-12-07T12:57:21;9.70;99.90
55036;DHT22;40936;53.008;6.556;2022-12-07T13:02:30;10.20;99.90
55036;DHT22;40936;53.008;6.556;2022-12-07T13:05:18;9.50;99.90
55036;DHT22;40936;53.008;6.556;2022-12-07T13:20:53;10.60;24.70
55036;DHT22;40936;53.008;6.556;2022-12-07T13:29:15;8.60;1.00
55036;DHT22;40936;53.008;6.556;2022-12-07T13:31:50;8.90;1.00
55036;DHT22;40936;53.008;6.556;2022-12-07T13:34:42;8.80;1.00
55036;DHT22;40936;53.008;6.556;2022-12-07T13:39:46;8.80;1.00
55036;DHT22;40936;53.008;6.556;2022-12-07T13:44:58;8.80;1.00
55036;DHT22;40936;53.008;6.556;2022-12-07T13:47:42;8.50;99.90
55036;DHT22;40936;53.008;6.556;2022-12-07T13:50:27;8.70;99.90
55036;DHT22;40936;53.008;6.556;2022-12-07T13:52:57;8.30;1.00
55036;DHT22;40936;53.008;6.556;2022-12-07T13:55:23;8.60;1.00
55036;DHT22;40936;53.008;6.556;2022-12-07T13:57:51;9.00;1.00
55036;DHT22;40936;53.008;6.556;2022-12-07T14:00:18;10.30;99.90
55036;DHT22;40936;53.008;6.556;2022-12-07T14:05:41;10.50;99.90
55036;DHT22;40936;53.008;6.556;2022-12-07T14:15:52;8.20;99.90
55036;DHT22;40936;53.008;6.556;2022-12-07T14:18:29;8.50;99.90
55036;DHT22;40936;53.008;6.556;2022-12-07T14:21:16;8.40;99.90
55036;DHT22;40936;53.008;6.556;2022-12-07T14:23:44;8.20;99.90
55036;DHT22;40936;53.008;6.556;2022-12-07T14:26:15;10.20;99.90
55036;DHT22;40936;53.008;6.556;2022-12-07T14:28:42;8.50;99.90
55036;DHT22;40936;53.008;6.556;2022-12-07T14:31:12;9.30;99.90
55036;DHT22;40936;53.008;6.556;2022-12-07T14:33:39;7.10;99.90
55036;DHT22;40936;53.008;6.556;2022-12-07T14:36:05;8.30;77.70
55036;DHT22;40936;53.008;6.556;2022-12-07T14:38:31;8.10;99.90
55036;DHT22;40936;53.008;6.556;2022-12-07T14:40:57;9.50;99.90
55036;DHT22;40936;53.008;6.556;2022-12-07T14:43:42;6.50;99.90
55036;DHT22;40936;53.008;6.556;2022-12-07T14:46:09;8.00;99.90
55036;DHT22;40936;53.008;6.556;2022-12-07T14:48:35;9.80;99.90
55036;DHT22;40936;53.008;6.556;2022-12-07T14:51:00;9.90;73.60
55036;DHT22;40936;53.008;6.556;2022-12-07T14:53:35;9.00;99.90
55036;DHT22;40936;53.008;6.556;2022-12-07T14:56:02;8.20;99.90
55036;DHT22;40936;53.008;6.556;2022-12-07T14:58:30;8.50;99.90
55036;DHT22;40936;53.008;6.556;2022-12-07T15:00:56;8.20;99.90
55036;DHT22;40936;53.008;6.556;2022-12-07T15:03:22;8.40;99.90
55036;DHT22;40936;53.008;6.556;2022-12-07T15:05:47;10.00;99.90
55036;DHT22;40936;53.008;6.556;2022-12-07T15:08:13;8.50;99.90
55036;DHT22;40936;53.008;6.556;2022-12-07T15:10:39;8.70;99.90
55036;DHT22;40936;53.008;6.556;2022-12-07T15:13:06;8.70;99.90
55036;DHT22;40936;53.008;6.556;2022-12-07T15:15:51;8.30;99.90
55036;DHT22;40936;53.008;6.556;2022-12-07T15:18:18;8.20;87.20
55036;DHT22;40936;53.008;6.556;2022-12-07T15:20:45;9.60;99.90
55036;DHT22;40936;53.008;6.556;2022-12-07T15:23:11;8.40;99.90
55036;DHT22;40936;53.008;6.556;2022-12-07T15:25:41;9.30;1.00
55036;DHT22;40936;53.008;6.556;2022-12-07T15:28:07;8.80;1.00
55036;DHT22;40936;53.008;6.556;2022-12-07T15:30:32;8.40;99.90
55036;DHT22;40936;53.008;6.556;2022-12-07T15:32:58;8.00;99.90
55036;DHT22;40936;53.008;6.556;2022-12-07T15:35:23;7.90;1.00
55036;DHT22;40936;53.008;6.556;2022-12-07T15:37:49;8.40;99.90
55036;DHT22;40936;53.008;6.556;2022-12-07T15:40:15;7.90;1.00
55036;DHT22;40936;53.008;6.556;2022-12-07T15:42:40;7.50;99.90
55036;DHT22;40936;53.008;6.556;2022-12-07T15:45:07;7.50;99.90
55036;DHT22;40936;53.008;6.556;2022-12-07T15:47:41;7.60;99.90
55036;DHT22;40936;53.008;6.556;2022-12-07T15:50:10;8.70;1.00
55036;DHT22;40936;53.008;6.556;2022-12-07T15:52:37;7.70;99.90
55036;DHT22;40936;53.008;6.556;2022-12-07T15:55:03;7.40;99.90
55036;DHT22;40936;53.008;6.556;2022-12-07T15:57:30;7.80;99.90
55036;DHT22;40936;53.008;6.556;2022-12-07T15:59:56;7.50;99.90
55036;DHT22;40936;53.008;6.556;2022-12-07T16:02:22;7.80;99.90
55036;DHT22;40936;53.008;6.556;2022-12-07T16:04:49;7.40;80.50
55036;DHT22;40936;53.008;6.556;2022-12-07T16:07:15;8.40;1.00
55036;DHT22;40936;53.008;6.556;2022-12-07T16:09:42;7.40;99.90
55036;DHT22;40936;53.008;6.556;2022-12-07T16:12:09;7.80;16.30
55036;DHT22;40936;53.008;6.556;2022-12-07T16:14:35;7.40;99.90
55036;DHT22;40936;53.008;6.556;2022-12-07T16:17:01;8.00;99.90
55036;DHT22;40936;53.008;6.556;2022-12-07T16:19:27;8.70;99.90
55036;DHT22;40936;53.008;6.556;2022-12-07T16:21:53;8.30;99.90
55036;DHT22;40936;53.008;6.556;2022-12-07T16:24:18;8.90;70.00
55036;DHT22;40936;53.008;6.556;2022-12-07T16:26:45;7.50;99.90
55036;DHT22;40936;53.008;6.556;2022-12-07T16:29:14;7.80;1.00
55036;DHT22;40936;53.008;6.556;2022-12-07T16:31:40;7.90;99.90
55036;DHT22;40936;53.008;6.556;2022-12-07T16:34:06;7.70;99.90
55036;DHT22;40936;53.008;6.556;2022-12-07T16:36:32;8.50;7.80
55036;DHT22;40936;53.008;6.556;2022-12-07T16:38:58;7.80;99.90
55036;DHT22;40936;53.008;6.556;2022-12-07T16:43:51;8.00;1.00
55036;DHT22;40936;53.008;6.556;2022-12-07T16:46:17;9.40;71.70
55036;DHT22;40936;53.008;6.556;2022-12-07T16:48:43;7.90;41.70
55036;DHT22;40936;53.008;6.556;2022-12-07T16:51:14;7.00;99.90
55036;DHT22;40936;53.008;6.556;2022-12-07T16:53:41;7.90;99.90
55036;DHT22;40936;53.008;6.556;2022-12-07T16:56:11;9.10;1.00
55036;DHT22;40936;53.008;6.556;2022-12-07T16:58:38;7.70;1.00
55036;DHT22;40936;53.008;6.556;2022-12-07T17:01:15;8.20;1.00
55036;DHT22;40936;53.008;6.556;2022-12-07T17:03:42;7.90;1.00
55036;DHT22;40936;53.008;6.556;2022-12-07T17:06:22;8.60;99.90
55036;DHT22;40936;53.008;6.556;2022-12-07T17:08:49;6.40;1.00
55036;DHT22;40936;53.008;6.556;2022-12-07T17:11:24;9.20;99.90
55036;DHT22;40936;53.008;6.556;2022-12-07T17:13:50;7.80;1.00
55036;DHT22;40936;53.008;6.556;2022-12-07T17:16:34;8.40;99.90
55036;DHT22;40936;53.008;6.556;2022-12-07T17:19:03;6.80;99.90
55036;DHT22;40936;53.008;6.556;2022-12-07T17:21:30;8.50;1.00
55036;DHT22;40936;53.008;6.556;2022-12-07T17:23:59;9.60;38.80
55036;DHT22;40936;53.008;6.556;2022-12-07T17:26:26;8.20;97.50
55036;DHT22;40936;53.008;6.556;2022-12-07T17:28:52;8.00;1.00
55036;DHT22;40936;53.008;6.556;2022-12-07T17:31:20;7.80;99.90
55036;DHT22;40936;53.008;6.556;2022-12-07T17:33:46;8.00;95.00
55036;DHT22;40936;53.008;6.556;2022-12-07T17:36:17;8.00;99.90
55036;DHT22;40936;53.008;6.556;2022-12-07T17:38:43;8.70;99.90
55036;DHT22;40936;53.008;6.556;2022-12-07T17:41:14;7.70;99.90
55036;DHT22;40936;53.008;6.556;2022-12-07T17:43:59;7.80;99.90
55036;DHT22;40936;53.008;6.556;2022-12-07T17:46:26;8.30;1.00
55036;DHT22;40936;53.008;6.556;2022-12-07T17:48:54;9.70;1.00
55036;DHT22;40936;53.008;6.556;2022-12-07T17:51:20;8.70;99.90
55036;DHT22;40936;53.008;6.556;2022-12-07T17:54:04;8.00;1.00
55036;DHT22;40936;53.008;6.556;2022-12-07T17:56:30;9.30;1.00
55036;DHT22;40936;53.008;6.556;2022-12-07T17:58:56;8.00;1.00
55036;DHT22;40936;53.008;6.556;2022-12-07T18:01:21;7.90;1.00
55036;DHT22;40936;53.008;6.556;2022-12-07T18:03:47;7.80;1.00
55036;DHT22;40936;53.008;6.556;2022-12-07T18:06:13;8.20;99.90
55036;DHT22;40936;53.008;6.556;2022-12-07T18:08:40;9.10;1.00
55036;DHT22;40936;53.008;6.556;2022-12-07T18:11:06;8.10;65.60
55036;DHT22;40936;53.008;6.556;2022-12-07T18:13:33;6.80;99.90
55036;DHT22;40936;53.008;6.556;2022-12-07T18:16:07;8.50;99.90